createdAt,value
2019-04-23T00:02:39.293Z,14.60
2019-04-23T00:05:08.272Z,14.60
2019-04-23T00:15:30.417Z,14.40
2019-04-23T00:17:48.123Z,14.40
2019-04-23T00:20:20.472Z,14.40
2019-04-23T00:26:24.137Z,14.40
2019-04-23T00:31:15.270Z,14.40
2019-04-23T00:33:34.212Z,14.40
2019-04-23T00:36:10.651Z,14.40
2019-04-23T00:38:45.468Z,14.40
2019-04-23T00:41:15.941Z,14.40
2019-04-23T00:43:52.763Z,14.30
2019-04-23T00:46:22.348Z,14.30
2019-04-23T00:51:22.418Z,14.30
2019-04-23T00:53:51.432Z,14.40
2019-04-23T00:56:39.817Z,14.30
2019-04-23T00:58:56.410Z,14.30
2019-04-23T01:01:36.845Z,14.20
2019-04-23T01:04:02.347Z,14.20
2019-04-23T01:06:29.042Z,14.20
2019-04-23T01:09:02.618Z,14.20
2019-04-23T01:11:32.322Z,14.10
2019-04-23T01:14:08.134Z,14.10
2019-04-23T01:16:38.194Z,14.10
2019-04-23T01:19:20.662Z,14.00
2019-04-23T01:21:30.590Z,14.00
2019-04-23T01:24:21.926Z,14.00
2019-04-23T01:27:49.179Z,13.90
2019-04-23T01:30:09.732Z,13.90
2019-04-23T01:35:17.581Z,13.80
2019-04-23T01:37:42.432Z,13.80
2019-04-23T01:45:20.230Z,13.70
2019-04-23T01:47:50.052Z,13.70
2019-04-23T01:50:21.907Z,13.70
2019-04-23T01:52:52.362Z,13.70
2019-04-23T01:55:31.523Z,13.70
2019-04-23T02:00:30.360Z,13.70
2019-04-23T02:03:01.198Z,13.70
2019-04-23T02:05:39.681Z,13.60
2019-04-23T02:08:07.538Z,13.60
2019-04-23T02:13:14.140Z,13.50
2019-04-23T02:18:13.694Z,13.40
2019-04-23T02:23:46.105Z,13.40
2019-04-23T02:26:12.891Z,13.40
2019-04-23T02:36:22.656Z,13.30
2019-04-23T02:38:58.260Z,13.20
2019-04-23T02:44:11.552Z,13.00
2019-04-23T02:46:32.119Z,12.90
2019-04-23T02:54:34.958Z,13.10
2019-04-23T02:59:21.821Z,13.00
2019-04-23T03:01:39.393Z,12.90
2019-04-23T03:04:32.728Z,12.80
2019-04-23T03:06:55.999Z,12.80
2019-04-23T03:09:28.122Z,12.80
2019-04-23T03:14:25.121Z,12.80
2019-04-23T03:22:37.752Z,12.90
2019-04-23T03:32:30.825Z,12.70
2019-04-23T03:38:29.714Z,12.60
2019-04-23T03:40:58.960Z,12.60
2019-04-23T03:46:11.600Z,12.50
2019-04-23T03:48:32.281Z,12.50
2019-04-23T03:50:53.418Z,12.60
2019-04-23T03:56:05.523Z,12.30
2019-04-23T04:01:07.399Z,12.40
2019-04-23T04:04:03.812Z,12.40
2019-04-23T04:06:13.784Z,12.50
2019-04-23T04:08:37.103Z,12.40
2019-04-23T04:18:57.263Z,12.40
2019-04-23T04:21:27.615Z,12.30
2019-04-23T04:24:14.450Z,12.20
2019-04-23T04:26:33.749Z,12.40
2019-04-23T04:29:00.759Z,12.30
2019-04-23T04:31:37.451Z,12.30
2019-04-23T04:41:34.599Z,12.30
2019-04-23T04:44:23.754Z,12.40
2019-04-23T04:46:39.955Z,12.50
2019-04-23T04:51:49.842Z,12.70
2019-04-23T05:01:54.160Z,12.80
2019-04-23T05:04:30.841Z,12.80
2019-04-23T05:14:33.628Z,13.00
2019-04-23T05:16:57.326Z,13.10
2019-04-23T05:19:36.384Z,13.20
2019-04-23T05:27:06.062Z,13.50
2019-04-23T05:29:46.294Z,13.50
2019-04-23T05:32:04.247Z,13.60
2019-04-23T05:34:35.736Z,13.60
2019-04-23T05:37:04.929Z,13.50
2019-04-23T05:39:39.857Z,13.60
2019-04-23T05:42:10.954Z,13.80
2019-04-23T05:44:43.317Z,13.80
2019-04-23T05:47:20.354Z,14.00
2019-04-23T05:49:47.572Z,14.10
2019-04-23T05:52:17.770Z,14.30
2019-04-23T05:57:20.562Z,14.20
2019-04-23T06:00:07.653Z,14.30
2019-04-23T06:02:26.264Z,14.50
2019-04-23T06:04:57.279Z,14.60
2019-04-23T06:07:35.733Z,14.60
2019-04-23T06:10:04.844Z,14.50
2019-04-23T06:12:33.657Z,14.70
2019-04-23T06:15:05.146Z,14.70
2019-04-23T06:17:29.802Z,14.90
2019-04-23T06:20:10.188Z,14.90
2019-04-23T06:22:42.323Z,15.00
2019-04-23T06:25:21.533Z,15.00
2019-04-23T06:27:39.633Z,15.20
2019-04-23T06:30:19.297Z,15.30
2019-04-23T06:32:44.890Z,15.40
2019-04-23T06:35:16.725Z,15.70
2019-04-23T06:38:22.130Z,15.70
2019-04-23T06:40:22.008Z,15.90
2019-04-23T06:43:05.387Z,15.80
2019-04-23T06:45:32.260Z,16.10
2019-04-23T06:48:12.104Z,16.20
2019-04-23T06:50:43.389Z,16.50
2019-04-23T06:53:21.526Z,16.80
2019-04-23T06:55:42.059Z,16.60
2019-04-23T06:58:24.037Z,16.60
2019-04-23T07:09:03.083Z,16.70
2019-04-23T07:16:17.661Z,16.90
2019-04-23T07:18:48.683Z,17.10
2019-04-23T07:21:21.875Z,17.20
2019-04-23T07:26:30.328Z,17.90
2019-04-23T07:29:14.946Z,18.20
2019-04-23T07:31:26.318Z,18.50
2019-04-23T07:34:01.370Z,18.60
2019-04-23T07:39:25.567Z,19.60
2019-04-23T07:42:18.783Z,19.80
2019-04-23T07:45:02.522Z,19.40
2019-04-23T07:48:03.879Z,19.60
2019-04-23T07:50:33.306Z,19.70
2019-04-23T07:55:34.615Z,19.30
2019-04-23T07:58:06.508Z,19.40
2019-04-23T08:00:41.821Z,20.10
2019-04-23T08:03:10.851Z,19.60
2019-04-23T08:05:37.728Z,19.70
2019-04-23T08:08:07.153Z,19.70
2019-04-23T08:10:58.450Z,20.20
2019-04-23T08:13:16.176Z,20.60
2019-04-23T08:15:42.088Z,20.60
2019-04-23T08:20:49.150Z,20.20
2019-04-23T08:23:45.789Z,21.10
2019-04-23T08:31:35.137Z,21.40
2019-04-23T08:34:05.644Z,20.50
2019-04-23T08:36:37.114Z,20.20
2019-04-23T08:39:02.176Z,20.50
2019-04-23T08:41:44.641Z,20.50
2019-04-23T08:44:15.596Z,20.10
2019-04-23T08:46:56.814Z,20.70
2019-04-23T08:52:00.597Z,20.70
2019-04-23T08:54:37.055Z,20.20
2019-04-23T08:57:03.932Z,19.80
2019-04-23T08:59:38.901Z,19.60
2019-04-23T09:02:18.202Z,19.70
2019-04-23T09:07:11.359Z,19.70
2019-04-23T09:12:08.190Z,20.00
2019-04-23T09:14:42.221Z,20.30
2019-04-23T09:17:21.218Z,20.10
2019-04-23T09:20:03.665Z,20.30
2019-04-23T09:22:25.189Z,20.70
2019-04-23T09:24:48.774Z,21.00
2019-04-23T09:27:22.802Z,20.80
2019-04-23T09:32:26.591Z,20.80
2019-04-23T09:35:15.131Z,20.70
2019-04-23T09:38:07.104Z,20.90
2019-04-23T09:41:14.999Z,20.70
2019-04-23T09:43:47.856Z,20.70
2019-04-23T09:46:45.192Z,21.50
2019-04-23T09:51:47.649Z,22.00
2019-04-23T09:54:18.594Z,22.20
2019-04-23T09:56:47.808Z,21.90
2019-04-23T09:59:39.460Z,21.60
2019-04-23T10:01:48.312Z,20.70
2019-04-23T10:04:12.546Z,20.60
2019-04-23T10:06:34.606Z,20.90
2019-04-23T10:09:05.807Z,21.30
2019-04-23T10:11:34.950Z,21.60
2019-04-23T10:14:06.162Z,21.90
2019-04-23T10:16:37.027Z,22.40
2019-04-23T10:19:08.005Z,22.10
2019-04-23T10:21:39.457Z,22.10
2019-04-23T10:24:09.694Z,22.00
2019-04-23T10:26:39.982Z,22.10
2019-04-23T10:29:16.105Z,22.80
2019-04-23T10:31:46.341Z,23.50
2019-04-23T10:34:17.015Z,23.00
2019-04-23T10:36:47.432Z,23.10
2019-04-23T10:39:23.451Z,23.20
2019-04-23T10:41:52.225Z,23.10
2019-04-23T10:44:46.601Z,22.90
2019-04-23T10:48:18.272Z,23.00
2019-04-23T10:50:46.133Z,23.10
2019-04-23T10:53:26.872Z,23.00
2019-04-23T11:00:53.144Z,23.30
2019-04-23T11:03:41.680Z,22.40
2019-04-23T11:06:00.362Z,21.90
2019-04-23T11:08:31.074Z,22.40
2019-04-23T11:10:58.674Z,22.80
2019-04-23T11:13:53.119Z,22.90
2019-04-23T11:16:42.037Z,23.10
2019-04-23T11:18:51.908Z,22.90
2019-04-23T11:21:24.088Z,21.30
2019-04-23T11:26:26.268Z,21.90
2019-04-23T11:28:42.909Z,22.10
2019-04-23T11:31:31.015Z,22.30
2019-04-23T11:34:01.107Z,22.20
2019-04-23T11:41:41.818Z,22.30
2019-04-23T11:44:03.965Z,22.20
2019-04-23T11:46:45.668Z,21.90
2019-04-23T11:54:12.329Z,22.10
2019-04-23T11:59:29.138Z,22.10
2019-04-23T12:02:23.211Z,22.00
2019-04-23T12:05:17.133Z,21.90
2019-04-23T12:07:39.474Z,22.40
2019-04-23T12:10:31.702Z,22.90
2019-04-23T12:12:44.795Z,22.70
2019-04-23T12:15:35.604Z,22.70
2019-04-23T12:20:33.206Z,22.40
2019-04-23T12:23:25.459Z,22.20
2019-04-23T12:25:39.337Z,22.10
2019-04-23T12:28:03.770Z,22.20
2019-04-23T12:30:42.083Z,22.50
2019-04-23T12:33:13.007Z,22.90
2019-04-23T12:35:33.635Z,22.80
2019-04-23T12:38:17.519Z,22.70
2019-04-23T12:40:46.022Z,22.60
2019-04-23T12:43:14.578Z,22.50
2019-04-23T12:45:42.515Z,22.00
2019-04-23T12:53:37.946Z,22.80
2019-04-23T12:55:54.511Z,22.80
2019-04-23T12:58:24.783Z,22.80
2019-04-23T13:00:52.751Z,22.50
2019-04-23T13:03:30.924Z,22.40
2019-04-23T13:05:57.419Z,22.40
2019-04-23T13:08:38.173Z,22.20
2019-04-23T13:11:07.976Z,22.10
2019-04-23T13:13:37.536Z,22.50
2019-04-23T13:16:14.693Z,22.90
2019-04-23T13:21:38.427Z,23.00
2019-04-23T13:23:55.379Z,23.10
2019-04-23T13:26:23.585Z,23.10
2019-04-23T13:29:03.160Z,23.10
2019-04-23T13:31:30.013Z,23.10
2019-04-23T13:34:08.527Z,23.10
2019-04-23T13:36:41.809Z,22.40
2019-04-23T13:39:14.637Z,22.60
2019-04-23T13:42:00.130Z,22.90
2019-04-23T13:44:08.787Z,22.80
2019-04-23T13:46:46.652Z,22.90
2019-04-23T13:49:18.381Z,22.50
2019-04-23T13:51:48.707Z,23.00
2019-04-23T13:54:29.856Z,23.30
2019-04-23T13:57:25.690Z,23.10
2019-04-23T13:59:31.406Z,23.30
2019-04-23T14:01:57.150Z,23.40
2019-04-23T14:04:44.714Z,23.50
2019-04-23T14:07:15.039Z,23.40
2019-04-23T14:12:17.692Z,23.50
2019-04-23T14:14:55.984Z,23.00
2019-04-23T14:17:38.075Z,23.10
2019-04-23T14:20:03.828Z,23.30
2019-04-23T14:22:54.780Z,23.40
2019-04-23T14:30:17.706Z,22.60
2019-04-23T14:32:35.006Z,22.90
2019-04-23T14:35:25.753Z,22.80
2019-04-23T14:37:59.128Z,22.60
2019-04-23T14:40:21.717Z,22.90
2019-04-23T14:42:56.730Z,23.10
2019-04-23T14:48:02.742Z,22.80
2019-04-23T14:50:31.996Z,22.30
2019-04-23T14:53:16.619Z,22.10
2019-04-23T14:55:55.582Z,22.50
2019-04-23T14:58:17.746Z,22.70
2019-04-23T15:00:42.590Z,22.90
2019-04-23T15:05:52.391Z,22.80
2019-04-23T15:08:32.858Z,22.50
2019-04-23T15:13:28.069Z,22.10
2019-04-23T15:16:08.079Z,22.30
2019-04-23T15:18:48.778Z,22.10
2019-04-23T15:21:27.936Z,21.90
2019-04-23T15:23:51.485Z,21.80
2019-04-23T15:27:01.875Z,21.70
2019-04-23T15:28:22.246Z,21.70
2019-04-23T15:31:21.364Z,21.60
2019-04-23T15:34:03.891Z,21.60
2019-04-23T15:36:39.100Z,21.80
2019-04-23T15:46:32.741Z,22.00
2019-04-23T15:49:10.692Z,21.80
2019-04-23T15:51:40.888Z,21.60
2019-04-23T15:54:14.482Z,22.00
2019-04-23T15:59:27.552Z,22.00
2019-04-23T16:03:45.049Z,22.10
2019-04-23T16:06:19.676Z,22.20
2019-04-23T16:09:08.084Z,22.10
2019-04-23T16:11:51.703Z,21.80
2019-04-23T16:14:22.708Z,21.40
2019-04-23T16:19:45.862Z,21.40
2019-04-23T16:24:53.897Z,21.60
2019-04-23T16:27:11.070Z,21.70
2019-04-23T16:30:06.276Z,21.50
2019-04-23T16:32:28.054Z,21.30
2019-04-23T16:35:10.708Z,21.40
2019-04-23T16:37:37.245Z,21.30
2019-04-23T16:40:19.989Z,21.40
2019-04-23T16:42:39.996Z,21.50
2019-04-23T16:45:12.557Z,21.40
2019-04-23T16:47:38.899Z,21.70
2019-04-23T16:52:42.534Z,21.40
2019-04-23T16:55:16.589Z,21.30
2019-04-23T17:00:24.658Z,21.10
2019-04-23T17:03:02.662Z,21.20
2019-04-23T17:05:25.032Z,21.00
2019-04-23T17:08:24.771Z,20.80
2019-04-23T17:10:46.886Z,20.90
2019-04-23T17:13:10.575Z,20.80
2019-04-23T17:15:34.435Z,20.80
2019-04-23T17:18:03.122Z,20.70
2019-04-23T17:20:43.383Z,20.80
2019-04-23T17:23:16.621Z,20.80
2019-04-23T17:30:52.360Z,20.60
2019-04-23T17:33:27.504Z,20.60
2019-04-23T17:39:04.654Z,20.50
2019-04-23T17:41:38.851Z,20.40
2019-04-23T17:44:20.367Z,20.30
2019-04-23T17:49:10.821Z,20.10
2019-04-23T17:51:46.899Z,20.00
2019-04-23T17:54:17.891Z,20.00
2019-04-23T17:57:07.553Z,19.80
2019-04-23T17:59:42.443Z,19.70
2019-04-23T18:02:36.722Z,19.60
2019-04-23T18:04:33.028Z,19.50
2019-04-23T18:07:06.176Z,19.30
2019-04-23T18:09:37.822Z,19.20
2019-04-23T18:12:16.877Z,19.10
2019-04-23T18:14:31.325Z,19.00
2019-04-23T18:17:13.102Z,18.80
2019-04-23T18:20:04.762Z,18.70
2019-04-23T18:22:42.200Z,18.60
2019-04-23T18:25:25.733Z,18.50
2019-04-23T18:27:54.562Z,18.50
2019-04-23T18:30:42.873Z,18.30
2019-04-23T18:35:39.823Z,18.20
2019-04-23T18:41:07.070Z,18.00
2019-04-23T18:53:40.782Z,17.50
2019-04-23T18:58:57.132Z,17.20
2019-04-23T19:06:34.483Z,16.90
2019-04-23T19:09:32.329Z,16.90
2019-04-23T19:14:47.447Z,16.60
2019-04-23T19:22:27.314Z,16.30
2019-04-23T19:24:48.384Z,16.20
2019-04-23T19:27:28.690Z,16.30
2019-04-23T19:30:05.060Z,16.20
2019-04-23T19:32:41.956Z,16.20
2019-04-23T19:35:23.435Z,16.20
2019-04-23T19:37:59.561Z,16.00
2019-04-23T19:40:14.133Z,16.00
2019-04-23T19:42:55.841Z,16.00
2019-04-23T19:45:28.994Z,16.00
2019-04-23T19:48:13.466Z,16.00
2019-04-23T19:50:44.941Z,16.00
2019-04-23T19:53:22.633Z,15.90
2019-04-23T19:55:49.849Z,15.90
2019-04-23T19:58:14.579Z,15.90
2019-04-23T20:01:10.312Z,15.90
2019-04-23T20:03:26.681Z,15.80
2019-04-23T20:05:53.923Z,15.80
2019-04-23T20:10:57.838Z,15.80
2019-04-23T20:13:37.751Z,15.70
2019-04-23T20:18:46.238Z,15.80
2019-04-23T20:21:03.370Z,15.80
2019-04-23T20:23:58.683Z,15.80
2019-04-23T20:31:59.151Z,15.60
2019-04-23T20:34:31.359Z,15.40
2019-04-23T20:36:53.264Z,15.30
2019-04-23T20:39:34.826Z,15.20
2019-04-23T20:42:11.974Z,15.30
2019-04-23T20:44:47.427Z,15.20
2019-04-23T20:49:44.183Z,15.10
2019-04-23T20:52:13.659Z,15.10
2019-04-23T20:54:56.631Z,15.10
2019-04-23T20:57:43.885Z,14.90
2019-04-23T21:00:27.895Z,14.90
2019-04-23T21:03:25.875Z,14.90
2019-04-23T21:05:41.857Z,14.80
2019-04-23T21:08:41.122Z,14.70
2019-04-23T21:10:45.092Z,14.70
2019-04-23T21:13:27.772Z,14.70
2019-04-23T21:16:08.983Z,14.70
2019-04-23T21:18:33.047Z,14.70
2019-04-23T21:21:02.054Z,14.80
2019-04-23T21:23:44.051Z,14.80
2019-04-23T21:25:57.130Z,14.80
2019-04-23T21:31:11.414Z,14.70
2019-04-23T21:33:59.649Z,14.80
2019-04-23T21:36:51.061Z,14.80
2019-04-23T21:42:44.348Z,15.00
2019-04-23T21:45:04.625Z,15.00
2019-04-23T21:47:48.157Z,15.00
2019-04-23T21:50:19.518Z,15.00
2019-04-23T21:52:49.025Z,15.00
2019-04-23T21:55:19.947Z,15.00
2019-04-23T21:58:01.380Z,15.10
2019-04-23T22:00:19.129Z,15.10
2019-04-23T22:02:55.797Z,15.00
2019-04-23T22:05:27.210Z,15.00
2019-04-23T22:08:01.699Z,15.00
2019-04-23T22:10:26.423Z,14.90
2019-04-23T22:15:47.791Z,14.90
2019-04-23T22:18:00.255Z,14.90
2019-04-23T22:23:14.485Z,14.90
2019-04-23T22:25:56.955Z,14.80
2019-04-23T22:28:10.342Z,14.80
2019-04-23T22:30:49.476Z,14.70
2019-04-23T22:35:48.330Z,14.50
2019-04-23T22:38:18.755Z,14.50
2019-04-23T22:40:49.690Z,14.40
2019-04-23T22:43:20.634Z,14.30
2019-04-23T22:46:02.877Z,14.30
2019-04-23T22:49:01.341Z,14.20
2019-04-23T22:51:15.881Z,14.10
2019-04-23T22:53:46.051Z,14.10
2019-04-23T22:56:09.175Z,14.00
2019-04-23T22:58:46.097Z,13.90
2019-04-23T23:01:27.886Z,13.80
2019-04-23T23:03:59.009Z,13.60
2019-04-23T23:06:43.077Z,13.50
2019-04-23T23:09:18.655Z,13.40
2019-04-23T23:11:34.950Z,13.40
2019-04-23T23:14:22.485Z,13.40
2019-04-23T23:16:39.486Z,13.30
2019-04-23T23:19:14.868Z,13.30
2019-04-23T23:21:51.662Z,13.20
2019-04-23T23:24:16.886Z,13.20
2019-04-23T23:26:49.455Z,13.20
2019-04-23T23:29:13.840Z,13.20
2019-04-23T23:37:00.366Z,13.20
2019-04-23T23:41:58.870Z,13.00
2019-04-23T23:47:04.390Z,12.70
2019-04-23T23:49:38.650Z,12.60
2019-04-23T23:52:02.823Z,12.50
2019-04-23T23:54:52.540Z,12.60
2019-04-23T23:57:12.266Z,12.70
